createdAt,value
2023-06-06T00:02:26.006Z,21.80
2023-06-06T00:04:56.232Z,21.80
2023-06-06T00:07:25.062Z,21.80
2023-06-06T00:09:53.703Z,21.80
2023-06-06T00:12:22.403Z,21.70
2023-06-06T00:14:51.308Z,21.70
2023-06-06T00:17:20.085Z,21.60
2023-06-06T00:19:50.340Z,21.60
2023-06-06T00:22:20.625Z,21.50
2023-06-06T00:24:49.264Z,21.50
2023-06-06T00:27:17.953Z,21.50
2023-06-06T00:29:46.592Z,21.40
2023-06-06T00:32:15.413Z,21.40
2023-06-06T00:34:44.168Z,21.30
2023-06-06T00:37:12.780Z,21.30
2023-06-06T00:39:41.432Z,21.20
2023-06-06T00:42:10.399Z,21.20
2023-06-06T00:44:39.082Z,21.20
2023-06-06T00:47:08.738Z,21.20
2023-06-06T00:49:39.324Z,21.20
2023-06-06T00:52:08.711Z,21.10
2023-06-06T00:54:38.239Z,21.10
2023-06-06T00:57:09.751Z,21.10
2023-06-06T00:59:41.779Z,21.10
2023-06-06T01:02:14.034Z,21.10
2023-06-06T01:04:42.827Z,21.00
2023-06-06T01:07:13.572Z,21.00
2023-06-06T01:09:43.250Z,21.00
2023-06-06T01:12:49.614Z,21.00
2023-06-06T01:15:31.798Z,20.90
2023-06-06T01:18:02.637Z,20.90
2023-06-06T01:20:35.327Z,20.80
2023-06-06T01:23:04.872Z,20.70
2023-06-06T01:25:36.523Z,20.70
2023-06-06T01:28:05.900Z,20.60
2023-06-06T01:30:35.878Z,20.60
2023-06-06T01:33:07.658Z,20.60
2023-06-06T01:35:45.345Z,20.50
2023-06-06T01:38:19.597Z,20.50
2023-06-06T01:40:50.744Z,20.40
2023-06-06T01:43:20.899Z,20.40
2023-06-06T01:45:51.177Z,20.30
2023-06-06T01:48:20.923Z,20.30
2023-06-06T01:50:49.905Z,20.30
2023-06-06T01:53:18.577Z,20.30
2023-06-06T01:55:48.821Z,20.20
2023-06-06T01:58:18.876Z,20.20
2023-06-06T02:00:47.522Z,20.20
2023-06-06T02:03:16.237Z,20.20
2023-06-06T02:05:44.985Z,20.20
2023-06-06T02:08:15.810Z,20.10
2023-06-06T02:10:44.422Z,20.10
2023-06-06T02:13:13.049Z,20.00
2023-06-06T02:15:41.743Z,19.90
2023-06-06T02:18:10.976Z,19.90
2023-06-06T02:20:39.577Z,19.80
2023-06-06T02:23:08.669Z,19.80
2023-06-06T02:25:38.594Z,19.80
2023-06-06T02:28:09.260Z,19.80
2023-06-06T02:30:37.924Z,19.70
2023-06-06T02:33:07.452Z,19.80
2023-06-06T02:35:36.615Z,19.70
2023-06-06T02:38:05.352Z,19.70
2023-06-06T02:40:33.961Z,19.70
2023-06-06T02:43:02.661Z,19.70
2023-06-06T02:45:32.375Z,19.70
2023-06-06T02:48:01.408Z,19.60
2023-06-06T02:50:31.163Z,19.60
2023-06-06T02:53:01.629Z,19.60
2023-06-06T02:55:30.764Z,19.50
2023-06-06T02:57:59.420Z,19.50
2023-06-06T03:00:28.108Z,19.50
2023-06-06T03:02:56.758Z,19.40
2023-06-06T03:05:27.019Z,19.40
2023-06-06T03:07:57.443Z,19.30
2023-06-06T03:10:26.063Z,19.30
2023-06-06T03:12:54.670Z,19.20
2023-06-06T03:15:23.313Z,19.20
2023-06-06T03:17:52.084Z,19.10
2023-06-06T03:20:27.962Z,19.10
2023-06-06T03:22:56.609Z,19.00
2023-06-06T03:25:26.222Z,19.00
2023-06-06T03:28:14.436Z,18.90
2023-06-06T03:30:43.066Z,18.90
2023-06-06T03:33:11.741Z,18.90
2023-06-06T03:35:40.406Z,18.80
2023-06-06T03:38:09.241Z,18.80
2023-06-06T03:40:39.127Z,18.80
2023-06-06T03:43:09.389Z,18.80
2023-06-06T03:45:38.079Z,18.70
2023-06-06T03:48:07.943Z,18.70
2023-06-06T03:50:37.158Z,18.70
2023-06-06T03:53:05.966Z,18.70
2023-06-06T03:55:35.054Z,18.70
2023-06-06T03:58:04.228Z,18.60
2023-06-06T04:00:32.804Z,18.60
2023-06-06T04:03:02.281Z,18.70
2023-06-06T04:05:32.857Z,18.70
2023-06-06T04:08:01.542Z,18.60
2023-06-06T04:10:30.651Z,18.60
2023-06-06T04:12:59.250Z,18.70
2023-06-06T04:15:27.868Z,18.60
2023-06-06T04:17:56.595Z,18.60
2023-06-06T04:20:28.487Z,18.70
2023-06-06T04:22:57.125Z,18.70
2023-06-06T04:25:25.748Z,18.70
2023-06-06T04:27:54.440Z,18.80
2023-06-06T04:30:26.000Z,18.90
2023-06-06T04:32:55.511Z,19.00
2023-06-06T04:35:24.962Z,19.10
2023-06-06T04:37:54.158Z,19.20
2023-06-06T04:40:22.808Z,19.30
2023-06-06T04:42:53.074Z,19.40
2023-06-06T04:45:21.751Z,19.50
2023-06-06T04:47:50.551Z,19.60
2023-06-06T04:50:21.026Z,19.70
2023-06-06T04:52:49.649Z,19.70
2023-06-06T04:55:19.346Z,19.90
2023-06-06T04:57:47.971Z,20.00
2023-06-06T05:00:17.695Z,20.20
2023-06-06T05:02:48.053Z,20.30
2023-06-06T05:05:17.761Z,20.40
2023-06-06T05:07:46.828Z,20.50
2023-06-06T05:10:16.758Z,20.60
2023-06-06T05:12:45.385Z,20.70
2023-06-06T05:15:14.030Z,20.80
2023-06-06T05:17:56.923Z,20.90
2023-06-06T05:20:24.879Z,21.00
2023-06-06T05:22:53.560Z,21.10
2023-06-06T05:25:22.479Z,21.20
2023-06-06T05:27:52.793Z,21.20
2023-06-06T05:30:21.413Z,21.30
2023-06-06T05:32:50.375Z,21.40
2023-06-06T05:35:19.244Z,21.50
2023-06-06T05:37:47.820Z,21.50
2023-06-06T05:40:16.662Z,21.60
2023-06-06T05:42:45.372Z,21.70
2023-06-06T05:45:14.026Z,21.80
2023-06-06T05:47:42.717Z,21.90
2023-06-06T05:50:11.453Z,22.00
2023-06-06T05:52:40.087Z,22.10
2023-06-06T05:55:10.875Z,22.30
2023-06-06T05:57:39.646Z,22.40
2023-06-06T06:00:10.471Z,22.50
2023-06-06T06:02:39.798Z,22.70
2023-06-06T06:05:09.540Z,22.80
2023-06-06T06:07:39.498Z,23.00
2023-06-06T06:10:08.473Z,23.10
2023-06-06T06:12:37.119Z,23.30
2023-06-06T06:15:06.376Z,23.40
2023-06-06T06:17:35.049Z,23.50
2023-06-06T06:20:05.783Z,23.70
2023-06-06T06:22:34.506Z,23.70
2023-06-06T06:25:04.894Z,23.90
2023-06-06T06:27:33.688Z,24.00
2023-06-06T06:30:03.982Z,24.20
2023-06-06T06:32:35.903Z,24.40
2023-06-06T06:35:05.253Z,24.60
2023-06-06T06:37:38.415Z,24.80
2023-06-06T06:40:10.327Z,24.90
2023-06-06T06:42:42.824Z,25.20
2023-06-06T06:45:17.858Z,25.40
2023-06-06T06:47:46.568Z,25.60
2023-06-06T06:50:15.134Z,25.70
2023-06-06T06:52:44.286Z,25.80
2023-06-06T06:55:12.921Z,25.90
2023-06-06T06:57:44.585Z,25.90
2023-06-06T07:00:15.566Z,26.00
2023-06-06T07:02:46.007Z,26.10
2023-06-06T07:05:18.988Z,26.20
2023-06-06T07:07:54.782Z,26.30
2023-06-06T07:10:27.748Z,26.30
2023-06-06T07:12:57.240Z,26.30
2023-06-06T07:15:26.104Z,26.30
2023-06-06T07:17:55.313Z,26.30
2023-06-06T07:20:24.930Z,26.30
2023-06-06T07:22:55.176Z,26.30
2023-06-06T07:25:27.057Z,26.30
2023-06-06T07:27:56.353Z,26.30
2023-06-06T07:30:25.053Z,26.30
2023-06-06T07:32:54.252Z,26.30
2023-06-06T07:35:23.126Z,26.30
2023-06-06T07:37:51.931Z,26.30
2023-06-06T07:40:20.625Z,26.30
2023-06-06T07:42:49.316Z,26.30
2023-06-06T07:45:18.700Z,26.30
2023-06-06T07:47:47.395Z,26.30
2023-06-06T07:50:16.296Z,26.30
2023-06-06T07:52:46.220Z,26.30
2023-06-06T07:55:15.055Z,26.30
2023-06-06T07:57:45.322Z,26.30
2023-06-06T08:00:15.709Z,26.30
2023-06-06T08:02:45.087Z,26.40
2023-06-06T08:05:13.880Z,26.40
2023-06-06T08:07:42.662Z,26.40
2023-06-06T08:10:11.834Z,26.50
2023-06-06T08:12:40.578Z,26.50
2023-06-06T08:15:11.482Z,26.50
2023-06-06T08:17:40.167Z,26.60
2023-06-06T08:20:10.523Z,26.60
2023-06-06T08:22:39.864Z,26.70
2023-06-06T08:25:09.394Z,26.80
2023-06-06T08:27:39.822Z,26.80
2023-06-06T08:30:09.654Z,26.90
2023-06-06T08:32:39.002Z,27.00
2023-06-06T08:35:08.256Z,27.00
2023-06-06T08:37:37.475Z,27.10
2023-06-06T08:40:07.095Z,27.20
2023-06-06T08:42:38.101Z,27.20
2023-06-06T08:45:08.746Z,27.30
2023-06-06T08:47:39.223Z,27.30
2023-06-06T08:50:08.533Z,27.30
2023-06-06T08:52:39.150Z,27.30
2023-06-06T08:55:09.597Z,27.30
2023-06-06T08:57:40.452Z,27.30
2023-06-06T09:00:12.751Z,27.20
2023-06-06T09:02:42.840Z,27.20
2023-06-06T09:05:12.750Z,27.30
2023-06-06T09:07:41.794Z,27.30
2023-06-06T09:10:11.439Z,27.30
2023-06-06T09:12:47.916Z,27.30
2023-06-06T09:15:16.959Z,27.40
2023-06-06T09:17:50.734Z,27.50
2023-06-06T09:22:49.524Z,27.60
2023-06-06T09:25:23.270Z,27.70
2023-06-06T09:28:00.426Z,27.80
2023-06-06T09:30:31.212Z,28.00
2023-06-06T09:33:04.567Z,28.10
2023-06-06T09:35:37.772Z,28.20
2023-06-06T09:38:20.139Z,28.30
2023-06-06T20:22:56.858Z,28.50
2023-06-06T20:25:25.649Z,26.50
2023-06-06T20:27:54.282Z,26.30
2023-06-06T20:30:23.083Z,26.20
2023-06-06T20:32:52.047Z,26.20
2023-06-06T20:35:20.871Z,26.20
2023-06-06T20:37:49.938Z,26.20
2023-06-06T20:40:21.598Z,26.20
2023-06-06T20:42:52.308Z,26.20
2023-06-06T20:45:20.971Z,26.20
2023-06-06T20:47:51.119Z,26.30
2023-06-06T20:50:19.802Z,26.30
2023-06-06T20:52:48.434Z,26.30
2023-06-06T20:55:17.239Z,26.30
2023-06-06T20:57:46.157Z,26.30
2023-06-06T21:00:15.751Z,26.30
2023-06-06T21:02:45.991Z,26.30
2023-06-06T21:05:16.762Z,26.30
2023-06-06T21:07:46.821Z,26.30
2023-06-06T21:10:17.867Z,26.30
2023-06-06T21:12:46.759Z,26.30
2023-06-06T21:15:15.750Z,26.30
2023-06-06T21:17:44.445Z,26.20
2023-06-06T21:20:14.072Z,26.20
2023-06-06T21:22:43.794Z,26.20
2023-06-06T21:25:12.627Z,26.10
2023-06-06T21:27:41.212Z,26.10
2023-06-06T21:30:12.818Z,26.00
2023-06-06T21:32:42.646Z,26.00
2023-06-06T21:35:11.379Z,25.90
2023-06-06T21:37:40.017Z,25.80
